Jersey, AR

3:56 PM CST on March 06, 2015 (GMT -0600)
Monticello Municipal-Ellis | Change Station
CLOSE
Current Station
Airport
Location: Monticello,
Elevation: 269 ft
Nearby Weather Stations
Active Advisory: Flood Warning Active Notice: Record Report, Public Information Statement

Elev 269 ft 33.64 °N, 91.76 °W | Updated 1 hour ago

Clear
Clear
43 °F
Feels Like 40 °F
N
5
Wind Variable Wind from ESE

Today
High -- | Low -- °F
--% Chance of Precip.
Yesterday
High -- | Low -- °F
Precip. -- in
6:31 AM 6:09 PM
Full, 99% visible
Pressure 30.53 in
Visibility 10.0 miles
Clouds Clear
Windchill 40 °F
Dew Point 21 °F
Humidity 42%
Rainfall 0.00 in
Snow Depth Not available.
UV 4 out of 12
Pollen 6.60 out of 12
Air Quality Not available.
Flu Activity Not available.
METAR KLLQ 062053Z AUTO 11004KT 10SM CLR 06/M06 A3053 RMK AO2 SLP339 T00611061 56025

More Conditions Fewer Conditions

Pressure 30.53 in
Visibility 10.0 miles
Clouds Clear
Windchill 40 °F
Dew Point 21 °F
Humidity 42%
Rainfall 0.00 in
Snow Depth Not available.
UV 4 out of 12
Pollen 6.60 out of 12
Air Quality Not available.
Flu Activity Not available.
METAR KLLQ 062053Z AUTO 11004KT 10SM CLR 06/M06 A3053 RMK AO2 SLP339 T00611061 56025

More Conditions Fewer Conditions

10-Day Weather Forecast

Almanac

Astronomy

Mar. 06, 2015 Rise Set
Actual Time
Civil Twilight
Nautical Twilight
Astronomical Twilight
Moon
Length of Visible Light
Length of Day
Tomorrow will be .
, % of the Moon is Illuminated

Today's Extremes

State Highs State Lows

Community

WunderPhotos

Upload Photos

1,803,406 photos uploaded!

WunderBlogs® & News

Nearby

Air Quality

  Air Quality AQ Index Pollutant
Not available.

Snow Depth

Station Depth Elevation

Earthquake Activity

City Distance Mag. Time & Date
Minimum magnitude displayed is 2.5.

Coastal Water Temperatures

Place Temperature

Nearby Weather Stations

Flood Warning
Statement as of 9:19 AM CST on March 06, 2015

The Flood Warning continues for
the Ouachita River at Thatcher l&d.
* Until further notice... or until the warning is cancelled.
* At 6:00 am Friday the stage was 81.1 feet.
* Minor flooding is occurring and minor flooding is forecast.
* Flood stage is 79.0 feet.
* Forecast... the river will continue rising to near 84.3 feet by
Wednesday morning.
* Impacts at 83.0 feet... access to oil and gas rigs and to Timber
is flooded. Calhoun County Road 131 is completely under water
leading to old lock 8 river access.





             Fld observed forecast 7 am
location stg stg day time Sat sun Mon Tue Wed

Ouachita River
Thatcher l 79 81.1 Fri 06 am 82.0 82.7 83.2 83.8 84.3




Lat... Lon 3311 9223 3323 9236 3329 9261 3338 9247
3333 9226 3322 9212